sensor_id;sensor_type;location;lat;lon;timestamp;P1;durP1;ratioP1;P2;durP2;ratioP2
49758;SDS011;70329;45.524;10.194;2023-11-19T00:02:31;11.40;;;5.78;;
49758;SDS011;70329;45.524;10.194;2023-11-19T00:07:23;9.52;;;5.20;;
49758;SDS011;70329;45.524;10.194;2023-11-19T00:09:50;10.83;;;5.20;;
49758;SDS011;70329;45.524;10.194;2023-11-19T00:14:42;12.93;;;6.03;;
49758;SDS011;70329;45.524;10.194;2023-11-19T00:17:10;14.25;;;5.53;;
49758;SDS011;70329;45.524;10.194;2023-11-19T00:19:36;12.77;;;6.10;;
49758;SDS011;70329;45.524;10.194;2023-11-19T00:22:03;14.38;;;6.50;;
49758;SDS011;70329;45.524;10.194;2023-11-19T00:24:29;14.32;;;5.93;;
49758;SDS011;70329;45.524;10.194;2023-11-19T00:26:57;13.95;;;6.03;;
49758;SDS011;70329;45.524;10.194;2023-11-19T00:29:23;12.13;;;5.88;;
49758;SDS011;70329;45.524;10.194;2023-11-19T00:31:51;10.90;;;5.57;;
49758;SDS011;70329;45.524;10.194;2023-11-19T00:34:18;15.68;;;6.25;;
49758;SDS011;70329;45.524;10.194;2023-11-19T00:36:48;11.10;;;6.03;;
49758;SDS011;70329;45.524;10.194;2023-11-19T00:39:15;12.43;;;6.28;;
49758;SDS011;70329;45.524;10.194;2023-11-19T00:41:42;10.82;;;5.60;;
49758;SDS011;70329;45.524;10.194;2023-11-19T00:44:09;16.73;;;5.82;;
49758;SDS011;70329;45.524;10.194;2023-11-19T00:49:02;13.68;;;5.80;;
49758;SDS011;70329;45.524;10.194;2023-11-19T00:51:30;9.60;;;5.40;;
49758;SDS011;70329;45.524;10.194;2023-11-19T00:53:58;10.50;;;5.32;;
49758;SDS011;70329;45.524;10.194;2023-11-19T00:56:25;9.35;;;5.00;;
49758;SDS011;70329;45.524;10.194;2023-11-19T00:58:51;8.35;;;5.00;;
49758;SDS011;70329;45.524;10.194;2023-11-19T01:03:45;10.02;;;4.97;;
49758;SDS011;70329;45.524;10.194;2023-11-19T01:06:11;10.40;;;5.30;;
49758;SDS011;70329;45.524;10.194;2023-11-19T01:08:38;10.95;;;5.15;;
49758;SDS011;70329;45.524;10.194;2023-11-19T01:11:04;12.57;;;5.57;;
49758;SDS011;70329;45.524;10.194;2023-11-19T01:13:31;11.15;;;5.15;;
49758;SDS011;70329;45.524;10.194;2023-11-19T01:18:25;9.10;;;4.88;;
49758;SDS011;70329;45.524;10.194;2023-11-19T01:20:51;10.57;;;5.43;;
49758;SDS011;70329;45.524;10.194;2023-11-19T01:23:17;11.65;;;5.00;;
49758;SDS011;70329;45.524;10.194;2023-11-19T01:25:44;11.82;;;5.50;;
49758;SDS011;70329;45.524;10.194;2023-11-19T01:28:10;11.57;;;5.43;;
49758;SDS011;70329;45.524;10.194;2023-11-19T01:30:35;10.27;;;5.20;;
49758;SDS011;70329;45.524;10.194;2023-11-19T01:33:00;11.60;;;5.47;;
49758;SDS011;70329;45.524;10.194;2023-11-19T01:35:27;10.83;;;5.40;;
49758;SDS011;70329;45.524;10.194;2023-11-19T01:40:21;9.40;;;4.82;;
49758;SDS011;70329;45.524;10.194;2023-11-19T01:42:47;11.00;;;5.25;;
49758;SDS011;70329;45.524;10.194;2023-11-19T01:45:21;11.38;;;5.53;;
49758;SDS011;70329;45.524;10.194;2023-11-19T01:47:54;9.25;;;4.97;;
49758;SDS011;70329;45.524;10.194;2023-11-19T01:50:22;10.02;;;5.18;;
49758;SDS011;70329;45.524;10.194;2023-11-19T01:52:52;10.07;;;5.18;;
49758;SDS011;70329;45.524;10.194;2023-11-19T01:55:20;12.50;;;5.10;;
49758;SDS011;70329;45.524;10.194;2023-11-19T01:57:48;13.57;;;5.35;;
49758;SDS011;70329;45.524;10.194;2023-11-19T02:00:15;11.35;;;5.53;;
49758;SDS011;70329;45.524;10.194;2023-11-19T02:05:10;7.15;;;4.70;;
49758;SDS011;70329;45.524;10.194;2023-11-19T02:07:38;9.82;;;5.18;;
49758;SDS011;70329;45.524;10.194;2023-11-19T02:12:32;8.90;;;4.93;;
49758;SDS011;70329;45.524;10.194;2023-11-19T02:15:04;8.00;;;4.55;;
49758;SDS011;70329;45.524;10.194;2023-11-19T02:17:31;12.38;;;5.18;;
49758;SDS011;70329;45.524;10.194;2023-11-19T02:22:24;11.43;;;5.40;;
49758;SDS011;70329;45.524;10.194;2023-11-19T02:24:51;9.65;;;4.68;;
49758;SDS011;70329;45.524;10.194;2023-11-19T02:27:30;10.07;;;4.90;;
49758;SDS011;70329;45.524;10.194;2023-11-19T02:30:17;8.18;;;4.53;;
49758;SDS011;70329;45.524;10.194;2023-11-19T02:32:44;10.07;;;5.15;;
49758;SDS011;70329;45.524;10.194;2023-11-19T02:35:11;12.73;;;5.15;;
49758;SDS011;70329;45.524;10.194;2023-11-19T02:37:38;8.23;;;4.38;;
49758;SDS011;70329;45.524;10.194;2023-11-19T02:40:05;8.63;;;5.10;;
49758;SDS011;70329;45.524;10.194;2023-11-19T02:42:35;8.00;;;4.60;;
49758;SDS011;70329;45.524;10.194;2023-11-19T02:45:02;12.32;;;5.38;;
49758;SDS011;70329;45.524;10.194;2023-11-19T02:47:33;9.82;;;4.97;;
49758;SDS011;70329;45.524;10.194;2023-11-19T02:52:28;8.85;;;4.53;;
49758;SDS011;70329;45.524;10.194;2023-11-19T02:57:20;10.32;;;4.95;;
49758;SDS011;70329;45.524;10.194;2023-11-19T02:59:47;11.17;;;5.70;;
49758;SDS011;70329;45.524;10.194;2023-11-19T03:02:12;9.82;;;5.03;;
49758;SDS011;70329;45.524;10.194;2023-11-19T03:04:40;10.80;;;4.90;;
49758;SDS011;70329;45.524;10.194;2023-11-19T03:07:08;9.02;;;5.20;;
49758;SDS011;70329;45.524;10.194;2023-11-19T03:09:35;10.70;;;4.95;;
49758;SDS011;70329;45.524;10.194;2023-11-19T03:14:28;13.15;;;4.60;;
49758;SDS011;70329;45.524;10.194;2023-11-19T03:16:55;10.38;;;5.13;;
49758;SDS011;70329;45.524;10.194;2023-11-19T03:19:21;10.02;;;4.63;;
49758;SDS011;70329;45.524;10.194;2023-11-19T03:24:15;8.93;;;4.35;;
49758;SDS011;70329;45.524;10.194;2023-11-19T03:26:42;10.05;;;4.80;;
49758;SDS011;70329;45.524;10.194;2023-11-19T03:29:08;10.30;;;5.13;;
49758;SDS011;70329;45.524;10.194;2023-11-19T03:34:01;10.30;;;4.80;;
49758;SDS011;70329;45.524;10.194;2023-11-19T03:36:35;10.57;;;4.57;;
49758;SDS011;70329;45.524;10.194;2023-11-19T03:39:01;11.57;;;4.60;;
49758;SDS011;70329;45.524;10.194;2023-11-19T03:41:29;8.65;;;4.63;;
49758;SDS011;70329;45.524;10.194;2023-11-19T03:46:22;10.27;;;5.10;;
49758;SDS011;70329;45.524;10.194;2023-11-19T03:48:49;8.90;;;4.70;;
49758;SDS011;70329;45.524;10.194;2023-11-19T03:51:16;9.73;;;4.57;;
49758;SDS011;70329;45.524;10.194;2023-11-19T03:53:44;9.70;;;5.00;;
49758;SDS011;70329;45.524;10.194;2023-11-19T03:56:11;9.70;;;4.53;;
49758;SDS011;70329;45.524;10.194;2023-11-19T03:58:38;9.23;;;5.10;;
49758;SDS011;70329;45.524;10.194;2023-11-19T04:01:05;11.10;;;4.53;;
49758;SDS011;70329;45.524;10.194;2023-11-19T04:03:32;7.97;;;4.80;;
49758;SDS011;70329;45.524;10.194;2023-11-19T04:05:59;7.47;;;4.45;;
49758;SDS011;70329;45.524;10.194;2023-11-19T04:08:26;10.95;;;5.38;;
49758;SDS011;70329;45.524;10.194;2023-11-19T04:10:52;8.73;;;4.63;;
49758;SDS011;70329;45.524;10.194;2023-11-19T04:13:19;8.93;;;4.60;;
49758;SDS011;70329;45.524;10.194;2023-11-19T04:15:45;14.07;;;4.82;;
49758;SDS011;70329;45.524;10.194;2023-11-19T04:18:12;8.85;;;4.57;;
49758;SDS011;70329;45.524;10.194;2023-11-19T04:20:38;10.93;;;5.00;;
49758;SDS011;70329;45.524;10.194;2023-11-19T04:23:05;8.77;;;4.43;;
49758;SDS011;70329;45.524;10.194;2023-11-19T04:25:32;9.13;;;4.93;;
49758;SDS011;70329;45.524;10.194;2023-11-19T04:27:59;10.15;;;4.95;;
49758;SDS011;70329;45.524;10.194;2023-11-19T04:30:26;8.15;;;4.30;;
49758;SDS011;70329;45.524;10.194;2023-11-19T04:32:51;8.80;;;4.25;;
49758;SDS011;70329;45.524;10.194;2023-11-19T04:35:17;7.60;;;4.40;;
49758;SDS011;70329;45.524;10.194;2023-11-19T04:37:44;7.55;;;4.60;;
49758;SDS011;70329;45.524;10.194;2023-11-19T04:40:11;8.67;;;4.80;;
49758;SDS011;70329;45.524;10.194;2023-11-19T04:42:37;9.10;;;4.35;;
49758;SDS011;70329;45.524;10.194;2023-11-19T04:45:05;9.52;;;4.80;;
49758;SDS011;70329;45.524;10.194;2023-11-19T04:47:33;9.82;;;4.40;;
49758;SDS011;70329;45.524;10.194;2023-11-19T04:50:00;11.40;;;4.70;;
49758;SDS011;70329;45.524;10.194;2023-11-19T04:54:53;9.30;;;4.53;;
49758;SDS011;70329;45.524;10.194;2023-11-19T04:57:20;8.77;;;4.38;;
49758;SDS011;70329;45.524;10.194;2023-11-19T05:02:13;10.02;;;4.65;;
49758;SDS011;70329;45.524;10.194;2023-11-19T05:04:45;7.72;;;4.25;;
49758;SDS011;70329;45.524;10.194;2023-11-19T05:07:13;8.45;;;4.30;;
49758;SDS011;70329;45.524;10.194;2023-11-19T05:09:39;10.15;;;5.10;;
49758;SDS011;70329;45.524;10.194;2023-11-19T05:12:06;9.68;;;4.20;;
49758;SDS011;70329;45.524;10.194;2023-11-19T05:14:38;9.60;;;4.70;;
49758;SDS011;70329;45.524;10.194;2023-11-19T05:19:31;12.10;;;5.00;;
49758;SDS011;70329;45.524;10.194;2023-11-19T05:21:57;8.55;;;4.25;;
49758;SDS011;70329;45.524;10.194;2023-11-19T05:24:24;8.68;;;4.50;;
49758;SDS011;70329;45.524;10.194;2023-11-19T05:29:18;7.83;;;4.23;;
49758;SDS011;70329;45.524;10.194;2023-11-19T05:34:11;10.93;;;4.32;;
49758;SDS011;70329;45.524;10.194;2023-11-19T05:39:05;10.93;;;4.80;;
49758;SDS011;70329;45.524;10.194;2023-11-19T05:41:32;8.40;;;4.43;;
49758;SDS011;70329;45.524;10.194;2023-11-19T05:43:58;10.25;;;4.72;;
49758;SDS011;70329;45.524;10.194;2023-11-19T05:46:25;9.20;;;4.35;;
49758;SDS011;70329;45.524;10.194;2023-11-19T05:48:53;9.55;;;4.70;;
49758;SDS011;70329;45.524;10.194;2023-11-19T05:51:21;9.85;;;4.90;;
49758;SDS011;70329;45.524;10.194;2023-11-19T05:53:47;8.93;;;4.75;;
49758;SDS011;70329;45.524;10.194;2023-11-19T05:56:16;8.75;;;4.30;;
49758;SDS011;70329;45.524;10.194;2023-11-19T05:58:47;10.55;;;4.53;;
49758;SDS011;70329;45.524;10.194;2023-11-19T06:01:16;11.02;;;4.30;;
49758;SDS011;70329;45.524;10.194;2023-11-19T06:03:43;8.77;;;4.40;;
49758;SDS011;70329;45.524;10.194;2023-11-19T06:06:10;9.25;;;4.38;;
49758;SDS011;70329;45.524;10.194;2023-11-19T06:08:36;10.63;;;4.97;;
49758;SDS011;70329;45.524;10.194;2023-11-19T06:11:05;10.63;;;4.45;;
49758;SDS011;70329;45.524;10.194;2023-11-19T06:15:57;9.65;;;4.57;;
49758;SDS011;70329;45.524;10.194;2023-11-19T06:18:22;8.15;;;4.28;;
49758;SDS011;70329;45.524;10.194;2023-11-19T06:20:50;9.77;;;4.78;;
49758;SDS011;70329;45.524;10.194;2023-11-19T06:23:16;11.30;;;5.57;;
49758;SDS011;70329;45.524;10.194;2023-11-19T06:25:43;9.00;;;4.95;;
49758;SDS011;70329;45.524;10.194;2023-11-19T06:30:36;9.60;;;5.45;;
49758;SDS011;70329;45.524;10.194;2023-11-19T06:33:02;14.63;;;5.63;;
49758;SDS011;70329;45.524;10.194;2023-11-19T06:35:29;17.88;;;7.85;;
49758;SDS011;70329;45.524;10.194;2023-11-19T06:38:02;13.77;;;5.97;;
49758;SDS011;70329;45.524;10.194;2023-11-19T06:40:31;13.80;;;6.13;;
49758;SDS011;70329;45.524;10.194;2023-11-19T06:42:57;15.13;;;5.88;;
49758;SDS011;70329;45.524;10.194;2023-11-19T06:45:23;15.30;;;5.57;;
49758;SDS011;70329;45.524;10.194;2023-11-19T06:50:17;13.50;;;6.88;;
49758;SDS011;70329;45.524;10.194;2023-11-19T06:52:45;12.73;;;6.25;;
49758;SDS011;70329;45.524;10.194;2023-11-19T06:55:12;15.98;;;7.32;;
49758;SDS011;70329;45.524;10.194;2023-11-19T06:57:38;11.55;;;5.55;;
49758;SDS011;70329;45.524;10.194;2023-11-19T07:00:05;9.57;;;5.07;;
49758;SDS011;70329;45.524;10.194;2023-11-19T07:02:33;15.82;;;6.28;;
49758;SDS011;70329;45.524;10.194;2023-11-19T07:05:00;14.55;;;6.38;;
49758;SDS011;70329;45.524;10.194;2023-11-19T07:07:26;19.70;;;8.50;;
49758;SDS011;70329;45.524;10.194;2023-11-19T07:09:53;12.90;;;5.55;;
49758;SDS011;70329;45.524;10.194;2023-11-19T07:12:19;13.68;;;5.75;;
49758;SDS011;70329;45.524;10.194;2023-11-19T07:14:46;11.10;;;5.28;;
49758;SDS011;70329;45.524;10.194;2023-11-19T07:19:40;10.45;;;5.05;;
49758;SDS011;70329;45.524;10.194;2023-11-19T07:24:33;11.70;;;5.70;;
49758;SDS011;70329;45.524;10.194;2023-11-19T07:27:00;12.05;;;5.50;;
49758;SDS011;70329;45.524;10.194;2023-11-19T07:29:26;10.98;;;4.95;;
49758;SDS011;70329;45.524;10.194;2023-11-19T07:31:53;11.02;;;5.75;;
49758;SDS011;70329;45.524;10.194;2023-11-19T07:34:20;9.30;;;5.07;;
49758;SDS011;70329;45.524;10.194;2023-11-19T07:36:47;10.88;;;5.38;;
49758;SDS011;70329;45.524;10.194;2023-11-19T07:39:14;12.70;;;5.30;;
49758;SDS011;70329;45.524;10.194;2023-11-19T07:41:39;10.43;;;5.32;;
49758;SDS011;70329;45.524;10.194;2023-11-19T07:44:04;10.67;;;5.43;;
49758;SDS011;70329;45.524;10.194;2023-11-19T07:46:30;9.47;;;5.30;;
49758;SDS011;70329;45.524;10.194;2023-11-19T07:48:58;9.80;;;5.60;;
49758;SDS011;70329;45.524;10.194;2023-11-19T07:51:23;11.25;;;5.63;;
49758;SDS011;70329;45.524;10.194;2023-11-19T07:53:48;9.43;;;5.10;;
49758;SDS011;70329;45.524;10.194;2023-11-19T07:56:14;10.70;;;5.53;;
49758;SDS011;70329;45.524;10.194;2023-11-19T07:58:41;14.17;;;5.83;;
49758;SDS011;70329;45.524;10.194;2023-11-19T08:01:08;10.05;;;5.63;;
49758;SDS011;70329;45.524;10.194;2023-11-19T08:03:34;11.90;;;5.28;;
49758;SDS011;70329;45.524;10.194;2023-11-19T08:06:01;10.17;;;5.23;;
49758;SDS011;70329;45.524;10.194;2023-11-19T08:08:28;10.65;;;5.05;;
49758;SDS011;70329;45.524;10.194;2023-11-19T08:10:56;10.88;;;5.20;;
49758;SDS011;70329;45.524;10.194;2023-11-19T08:15:50;14.02;;;5.45;;
49758;SDS011;70329;45.524;10.194;2023-11-19T08:18:17;11.68;;;6.13;;
49758;SDS011;70329;45.524;10.194;2023-11-19T08:20:44;15.00;;;6.22;;
49758;SDS011;70329;45.524;10.194;2023-11-19T08:23:11;13.15;;;7.15;;
49758;SDS011;70329;45.524;10.194;2023-11-19T08:25:39;17.75;;;8.27;;
49758;SDS011;70329;45.524;10.194;2023-11-19T08:28:06;16.75;;;8.10;;
49758;SDS011;70329;45.524;10.194;2023-11-19T08:30:32;15.65;;;7.68;;
49758;SDS011;70329;45.524;10.194;2023-11-19T08:35:26;17.67;;;8.45;;
49758;SDS011;70329;45.524;10.194;2023-11-19T08:40:20;16.73;;;7.80;;
49758;SDS011;70329;45.524;10.194;2023-11-19T08:42:45;13.65;;;7.90;;
49758;SDS011;70329;45.524;10.194;2023-11-19T08:45:11;13.87;;;7.90;;
49758;SDS011;70329;45.524;10.194;2023-11-19T08:47:38;15.18;;;8.10;;
49758;SDS011;70329;45.524;10.194;2023-11-19T08:50:06;18.30;;;7.75;;
49758;SDS011;70329;45.524;10.194;2023-11-19T08:52:34;15.38;;;7.88;;
49758;SDS011;70329;45.524;10.194;2023-11-19T08:57:28;17.67;;;8.63;;
49758;SDS011;70329;45.524;10.194;2023-11-19T08:59:54;17.02;;;8.48;;
49758;SDS011;70329;45.524;10.194;2023-11-19T09:02:21;17.80;;;8.82;;
49758;SDS011;70329;45.524;10.194;2023-11-19T09:04:48;15.63;;;7.55;;
49758;SDS011;70329;45.524;10.194;2023-11-19T09:09:40;14.40;;;7.38;;
49758;SDS011;70329;45.524;10.194;2023-11-19T09:12:07;14.85;;;7.55;;
49758;SDS011;70329;45.524;10.194;2023-11-19T09:14:32;15.10;;;7.65;;
49758;SDS011;70329;45.524;10.194;2023-11-19T09:16:58;15.10;;;7.57;;
49758;SDS011;70329;45.524;10.194;2023-11-19T09:19:24;12.07;;;7.15;;
49758;SDS011;70329;45.524;10.194;2023-11-19T09:21:55;15.55;;;7.63;;
49758;SDS011;70329;45.524;10.194;2023-11-19T09:24:20;15.48;;;7.32;;
49758;SDS011;70329;45.524;10.194;2023-11-19T09:26:47;14.33;;;6.87;;
49758;SDS011;70329;45.524;10.194;2023-11-19T09:31:41;13.65;;;7.30;;
49758;SDS011;70329;45.524;10.194;2023-11-19T09:34:07;15.05;;;7.40;;
49758;SDS011;70329;45.524;10.194;2023-11-19T09:36:34;18.42;;;7.70;;
49758;SDS011;70329;45.524;10.194;2023-11-19T09:39:00;12.77;;;6.82;;
49758;SDS011;70329;45.524;10.194;2023-11-19T09:41:28;18.05;;;9.02;;
49758;SDS011;70329;45.524;10.194;2023-11-19T09:43:57;14.32;;;7.75;;
49758;SDS011;70329;45.524;10.194;2023-11-19T09:46:23;18.17;;;8.23;;
49758;SDS011;70329;45.524;10.194;2023-11-19T09:48:52;15.07;;;8.63;;
49758;SDS011;70329;45.524;10.194;2023-11-19T09:51:20;14.68;;;8.43;;
49758;SDS011;70329;45.524;10.194;2023-11-19T09:53:48;16.73;;;8.93;;
49758;SDS011;70329;45.524;10.194;2023-11-19T09:56:15;17.83;;;8.10;;
49758;SDS011;70329;45.524;10.194;2023-11-19T09:58:45;14.80;;;8.60;;
49758;SDS011;70329;45.524;10.194;2023-11-19T10:01:13;18.58;;;8.40;;
49758;SDS011;70329;45.524;10.194;2023-11-19T10:03:41;15.82;;;8.30;;
49758;SDS011;70329;45.524;10.194;2023-11-19T10:06:10;14.30;;;8.32;;
49758;SDS011;70329;45.524;10.194;2023-11-19T10:08:40;18.17;;;9.02;;
49758;SDS011;70329;45.524;10.194;2023-11-19T10:11:08;18.15;;;9.20;;
49758;SDS011;70329;45.524;10.194;2023-11-19T10:13:36;15.77;;;8.25;;
49758;SDS011;70329;45.524;10.194;2023-11-19T10:16:12;17.42;;;8.40;;
49758;SDS011;70329;45.524;10.194;2023-11-19T10:18:49;14.50;;;7.90;;
49758;SDS011;70329;45.524;10.194;2023-11-19T10:21:18;15.43;;;7.28;;
49758;SDS011;70329;45.524;10.194;2023-11-19T10:26:26;15.93;;;7.32;;
49758;SDS011;70329;45.524;10.194;2023-11-19T10:28:54;14.07;;;7.78;;
49758;SDS011;70329;45.524;10.194;2023-11-19T10:31:22;13.68;;;7.70;;
49758;SDS011;70329;45.524;10.194;2023-11-19T10:33:53;15.10;;;7.43;;
49758;SDS011;70329;45.524;10.194;2023-11-19T10:36:20;14.07;;;7.70;;
49758;SDS011;70329;45.524;10.194;2023-11-19T10:39:03;17.42;;;7.80;;
49758;SDS011;70329;45.524;10.194;2023-11-19T10:41:32;14.38;;;7.45;;
49758;SDS011;70329;45.524;10.194;2023-11-19T10:43:59;14.63;;;6.97;;
49758;SDS011;70329;45.524;10.194;2023-11-19T10:46:37;13.98;;;7.60;;
49758;SDS011;70329;45.524;10.194;2023-11-19T10:49:04;13.93;;;6.82;;
49758;SDS011;70329;45.524;10.194;2023-11-19T10:51:29;12.40;;;6.77;;
49758;SDS011;70329;45.524;10.194;2023-11-19T10:53:59;13.27;;;7.45;;
49758;SDS011;70329;45.524;10.194;2023-11-19T10:56:35;10.48;;;6.10;;
49758;SDS011;70329;45.524;10.194;2023-11-19T10:59:02;16.80;;;8.02;;
49758;SDS011;70329;45.524;10.194;2023-11-19T11:01:53;12.52;;;7.13;;
49758;SDS011;70329;45.524;10.194;2023-11-19T11:06:48;12.55;;;6.82;;
49758;SDS011;70329;45.524;10.194;2023-11-19T11:09:16;13.25;;;6.90;;
49758;SDS011;70329;45.524;10.194;2023-11-19T11:14:13;13.75;;;7.70;;
49758;SDS011;70329;45.524;10.194;2023-11-19T11:16:44;16.40;;;7.97;;
49758;SDS011;70329;45.524;10.194;2023-11-19T11:19:12;10.73;;;6.57;;
49758;SDS011;70329;45.524;10.194;2023-11-19T11:24:31;15.38;;;7.60;;
49758;SDS011;70329;45.524;10.194;2023-11-19T11:38:08;16.95;;;9.07;;
49758;SDS011;70329;45.524;10.194;2023-11-19T11:40:35;20.15;;;10.00;;
49758;SDS011;70329;45.524;10.194;2023-11-19T11:43:02;18.92;;;9.52;;
49758;SDS011;70329;45.524;10.194;2023-11-19T11:45:40;15.32;;;8.82;;
49758;SDS011;70329;45.524;10.194;2023-11-19T11:48:15;14.80;;;9.07;;
49758;SDS011;70329;45.524;10.194;2023-11-19T11:50:52;15.88;;;8.98;;
49758;SDS011;70329;45.524;10.194;2023-11-19T11:53:19;17.85;;;10.25;;
49758;SDS011;70329;45.524;10.194;2023-11-19T11:58:19;20.92;;;11.40;;
49758;SDS011;70329;45.524;10.194;2023-11-19T12:00:47;15.05;;;9.15;;
49758;SDS011;70329;45.524;10.194;2023-11-19T12:03:14;16.10;;;9.02;;
49758;SDS011;70329;45.524;10.194;2023-11-19T12:05:44;15.82;;;10.20;;
49758;SDS011;70329;45.524;10.194;2023-11-19T12:08:12;18.63;;;8.85;;
49758;SDS011;70329;45.524;10.194;2023-11-19T12:10:49;16.48;;;9.73;;
49758;SDS011;70329;45.524;10.194;2023-11-19T12:13:19;20.17;;;10.43;;
49758;SDS011;70329;45.524;10.194;2023-11-19T12:18:33;16.15;;;8.98;;
49758;SDS011;70329;45.524;10.194;2023-11-19T12:20:59;17.73;;;10.55;;
49758;SDS011;70329;45.524;10.194;2023-11-19T12:23:26;18.67;;;10.60;;
49758;SDS011;70329;45.524;10.194;2023-11-19T12:25:53;18.13;;;10.25;;
49758;SDS011;70329;45.524;10.194;2023-11-19T12:30:45;18.23;;;11.32;;
49758;SDS011;70329;45.524;10.194;2023-11-19T12:33:16;20.50;;;11.65;;
49758;SDS011;70329;45.524;10.194;2023-11-19T12:35:43;18.23;;;10.68;;
49758;SDS011;70329;45.524;10.194;2023-11-19T12:38:24;18.63;;;10.85;;
49758;SDS011;70329;45.524;10.194;2023-11-19T12:41:04;18.98;;;11.38;;
49758;SDS011;70329;45.524;10.194;2023-11-19T12:43:34;19.10;;;11.57;;
49758;SDS011;70329;45.524;10.194;2023-11-19T12:46:02;18.33;;;11.23;;
49758;SDS011;70329;45.524;10.194;2023-11-19T12:48:29;21.98;;;12.15;;
49758;SDS011;70329;45.524;10.194;2023-11-19T12:50:58;22.55;;;12.05;;
49758;SDS011;70329;45.524;10.194;2023-11-19T12:53:28;21.08;;;12.43;;
49758;SDS011;70329;45.524;10.194;2023-11-19T12:55:55;20.30;;;11.32;;
49758;SDS011;70329;45.524;10.194;2023-11-19T12:58:34;22.55;;;12.65;;
49758;SDS011;70329;45.524;10.194;2023-11-19T13:01:04;21.65;;;13.65;;
49758;SDS011;70329;45.524;10.194;2023-11-19T13:03:35;18.33;;;11.88;;
49758;SDS011;70329;45.524;10.194;2023-11-19T13:06:07;20.23;;;11.55;;
49758;SDS011;70329;45.524;10.194;2023-11-19T13:08:38;19.42;;;11.45;;
49758;SDS011;70329;45.524;10.194;2023-11-19T13:11:08;16.95;;;11.50;;
49758;SDS011;70329;45.524;10.194;2023-11-19T13:16:27;28.55;;;11.27;;
49758;SDS011;70329;45.524;10.194;2023-11-19T13:18:54;18.17;;;11.50;;
49758;SDS011;70329;45.524;10.194;2023-11-19T13:21:21;19.90;;;11.63;;
49758;SDS011;70329;45.524;10.194;2023-11-19T13:23:47;19.33;;;11.68;;
49758;SDS011;70329;45.524;10.194;2023-11-19T13:26:14;23.05;;;11.70;;
49758;SDS011;70329;45.524;10.194;2023-11-19T13:28:41;17.30;;;10.45;;
49758;SDS011;70329;45.524;10.194;2023-11-19T13:31:08;16.73;;;9.52;;
49758;SDS011;70329;45.524;10.194;2023-11-19T13:33:34;11.65;;;8.25;;
49758;SDS011;70329;45.524;10.194;2023-11-19T13:36:01;18.08;;;9.98;;
49758;SDS011;70329;45.524;10.194;2023-11-19T13:38:32;17.05;;;9.80;;
49758;SDS011;70329;45.524;10.194;2023-11-19T13:41:02;14.85;;;9.02;;
49758;SDS011;70329;45.524;10.194;2023-11-19T13:43:29;17.98;;;9.80;;
49758;SDS011;70329;45.524;10.194;2023-11-19T13:45:56;15.65;;;9.70;;
49758;SDS011;70329;45.524;10.194;2023-11-19T13:48:24;15.63;;;9.27;;
49758;SDS011;70329;45.524;10.194;2023-11-19T13:50:52;17.38;;;9.70;;
49758;SDS011;70329;45.524;10.194;2023-11-19T13:53:18;15.10;;;9.65;;
49758;SDS011;70329;45.524;10.194;2023-11-19T13:55:43;14.13;;;8.90;;
49758;SDS011;70329;45.524;10.194;2023-11-19T13:58:09;22.07;;;9.73;;
49758;SDS011;70329;45.524;10.194;2023-11-19T14:00:36;15.27;;;9.23;;
49758;SDS011;70329;45.524;10.194;2023-11-19T14:03:04;13.70;;;8.75;;
49758;SDS011;70329;45.524;10.194;2023-11-19T14:05:31;17.98;;;9.13;;
49758;SDS011;70329;45.524;10.194;2023-11-19T14:07:56;19.75;;;9.70;;
49758;SDS011;70329;45.524;10.194;2023-11-19T14:10:24;17.35;;;9.07;;
49758;SDS011;70329;45.524;10.194;2023-11-19T14:12:51;17.05;;;10.20;;
49758;SDS011;70329;45.524;10.194;2023-11-19T14:15:17;16.05;;;9.50;;
49758;SDS011;70329;45.524;10.194;2023-11-19T14:20:10;16.38;;;8.38;;
49758;SDS011;70329;45.524;10.194;2023-11-19T14:22:42;16.92;;;9.65;;
49758;SDS011;70329;45.524;10.194;2023-11-19T14:25:09;20.52;;;9.25;;
49758;SDS011;70329;45.524;10.194;2023-11-19T14:27:43;19.83;;;9.77;;
49758;SDS011;70329;45.524;10.194;2023-11-19T14:30:11;19.42;;;10.85;;
49758;SDS011;70329;45.524;10.194;2023-11-19T14:32:42;19.17;;;10.27;;
49758;SDS011;70329;45.524;10.194;2023-11-19T14:35:13;17.85;;;9.00;;
49758;SDS011;70329;45.524;10.194;2023-11-19T14:37:40;18.00;;;9.35;;
49758;SDS011;70329;45.524;10.194;2023-11-19T14:40:07;15.70;;;9.07;;
49758;SDS011;70329;45.524;10.194;2023-11-19T14:42:36;15.52;;;8.50;;
49758;SDS011;70329;45.524;10.194;2023-11-19T14:45:03;15.90;;;8.23;;
49758;SDS011;70329;45.524;10.194;2023-11-19T14:47:31;15.18;;;8.38;;
49758;SDS011;70329;45.524;10.194;2023-11-19T14:49:57;15.35;;;8.57;;
49758;SDS011;70329;45.524;10.194;2023-11-19T14:52:24;13.50;;;8.05;;
49758;SDS011;70329;45.524;10.194;2023-11-19T14:57:20;13.82;;;7.93;;
49758;SDS011;70329;45.524;10.194;2023-11-19T14:59:47;14.50;;;7.68;;
49758;SDS011;70329;45.524;10.194;2023-11-19T15:02:14;14.00;;;7.25;;
49758;SDS011;70329;45.524;10.194;2023-11-19T15:04:40;13.38;;;7.65;;
49758;SDS011;70329;45.524;10.194;2023-11-19T15:07:07;13.80;;;7.80;;
49758;SDS011;70329;45.524;10.194;2023-11-19T15:12:03;18.92;;;8.73;;
49758;SDS011;70329;45.524;10.194;2023-11-19T15:14:31;15.23;;;8.57;;
49758;SDS011;70329;45.524;10.194;2023-11-19T15:19:25;12.97;;;7.67;;
49758;SDS011;70329;45.524;10.194;2023-11-19T15:24:17;15.18;;;8.68;;
49758;SDS011;70329;45.524;10.194;2023-11-19T15:26:42;13.57;;;8.25;;
49758;SDS011;70329;45.524;10.194;2023-11-19T15:29:08;13.83;;;8.43;;
49758;SDS011;70329;45.524;10.194;2023-11-19T15:31:34;17.95;;;8.98;;
49758;SDS011;70329;45.524;10.194;2023-11-19T15:34:00;14.17;;;8.33;;
49758;SDS011;70329;45.524;10.194;2023-11-19T15:36:27;15.93;;;9.00;;
49758;SDS011;70329;45.524;10.194;2023-11-19T15:41:19;20.13;;;10.65;;
49758;SDS011;70329;45.524;10.194;2023-11-19T15:43:45;21.02;;;10.20;;
49758;SDS011;70329;45.524;10.194;2023-11-19T15:46:12;20.55;;;10.82;;
49758;SDS011;70329;45.524;10.194;2023-11-19T15:48:38;20.73;;;11.70;;
49758;SDS011;70329;45.524;10.194;2023-11-19T15:51:05;23.15;;;12.02;;
49758;SDS011;70329;45.524;10.194;2023-11-19T15:53:31;19.75;;;12.00;;
49758;SDS011;70329;45.524;10.194;2023-11-19T15:55:58;24.88;;;12.10;;
49758;SDS011;70329;45.524;10.194;2023-11-19T15:58:25;21.15;;;11.27;;
49758;SDS011;70329;45.524;10.194;2023-11-19T16:00:51;20.00;;;11.70;;
49758;SDS011;70329;45.524;10.194;2023-11-19T16:03:18;20.35;;;11.88;;
49758;SDS011;70329;45.524;10.194;2023-11-19T16:05:44;20.20;;;11.15;;
49758;SDS011;70329;45.524;10.194;2023-11-19T16:08:11;19.77;;;11.52;;
49758;SDS011;70329;45.524;10.194;2023-11-19T16:10:41;21.88;;;11.50;;
49758;SDS011;70329;45.524;10.194;2023-11-19T16:13:12;19.10;;;11.27;;
49758;SDS011;70329;45.524;10.194;2023-11-19T16:15:38;22.23;;;12.40;;
49758;SDS011;70329;45.524;10.194;2023-11-19T16:20:31;19.85;;;12.18;;
49758;SDS011;70329;45.524;10.194;2023-11-19T16:23:00;24.77;;;12.57;;
49758;SDS011;70329;45.524;10.194;2023-11-19T16:25:27;24.40;;;13.98;;
49758;SDS011;70329;45.524;10.194;2023-11-19T16:27:54;23.65;;;12.43;;
49758;SDS011;70329;45.524;10.194;2023-11-19T16:30:22;26.90;;;14.48;;
49758;SDS011;70329;45.524;10.194;2023-11-19T16:32:52;24.13;;;13.65;;